KDYS/DYS METAR and TAF weather

Enter ICAO airport designator
Station Type Date Time Source
KDYS METAR 2018/01/17 05:56 UTC NOAA

KDYS 170556Z AUTO 00000KT 10SM CLR M14/M20 A3068 RMK AO2 SLP439 T11411197 11042 21144 410231144 53003 $


Station Type Date Time Source
KDYS Decoded METAR 2018/01/17 05:56 UTC NOAA

Abilene, Dyess Air Force Base, TX, United States (KDYS) 32-25-12N 099-51-25W
Jan 17, 2018 - 12:56 AM EST / 2018.01.17 0556 UTC
Wind: Calm:0
Visibility: 10 mile(s):0
Sky conditions: clear
Temperature: 6.6 F (-14.1 C)
Dew Point: -3.5 F (-19.7 C)
Relative Humidity: 62%
Pressure (altimeter): 30.68 in. Hg (1038 hPa)
Pressure tendency: 0.01 inches (0.3 hPa) higher than three hours ago
ob: KDYS 170556Z AUTO 00000KT 10SM CLR M14/M20 A3068 RMK AO2 SLP439 T11411197 11042 21144 410231144 53003
cycle: 6

Station Type Date Time Source
KDYS TAF 2018/01/17 05:51 UTC NOAA

TAF KDYS 170538Z 1705/1807 01006KT 9999 SKC QNH3070INS
BECMG 1715/1716 15009KT 9999 SKC QNH3070INS TX01/1719Z TNM15/1710Z


Example: see airport list